Aviation Digital Data Service (ADDS)

Output produced by METARs form (0404 UTC 30 July 2015)
found at http://aviationweather.gov/adds/metars/
 
KBTV 292337Z 3000/3024 17004KT P6SM SCT200 
     FM301200 18010KT P6SM SCT050 BKN120 
     FM301700 18011KT 5SM -SHRA BKN050 BKN080 
     FM302000 22007KT P6SM SCT250